Time;durP1;ratioP1;P1;durP2;ratioP2;P2;SDS_P1;SDS_P2;PMS_P1;PMS_P2;Temp;Humidity;BMP_temperature;BMP_pressure;BME280_temperature;BME280_humidity;BME280_pressure;Samples;Min_cycle;Max_cycle;Signal;HPM_P1;HPM_P2
2022/11/22 00:00:59;;;;;;;35.45;32.67;;;1.20;99.90;;;;;;5088301;28;20486;-54
2022/11/22 00:03:25;;;;;;;37.30;34.33;;;1.60;99.90;;;;;;5088656;28;20579;-59
2022/11/22 00:05:50;;;;;;;30.73;28.30;;;1.80;99.90;;;;;;5089214;28;20512;-57
2022/11/22 00:08:16;;;;;;;29.33;27.13;;;1.60;99.90;;;;;;5090073;28;20405;-54
2022/11/22 00:10:42;;;;;;;28.42;26.20;;;1.50;99.90;;;;;;5090654;28;21294;-57
2022/11/22 00:13:08;;;;;;;28.73;26.38;;;1.40;99.90;;;;;;5090688;28;20447;-56
2022/11/22 00:15:34;;;;;;;28.23;25.92;;;1.40;99.90;;;;;;5072312;28;20797;-56
2022/11/22 00:18:00;;;;;;;28.33;26.02;;;1.30;99.90;;;;;;5089135;28;20647;-56
2022/11/22 00:20:25;;;;;;;31.20;28.73;;;1.30;99.90;;;;;;5069245;28;20476;-56
2022/11/22 00:22:51;;;;;;;32.43;29.83;;;1.20;99.90;;;;;;5087754;28;20409;-56
2022/11/22 00:25:17;;;;;;;33.13;30.47;;;1.20;99.90;;;;;;5071742;28;20412;-57
2022/11/22 00:27:42;;;;;;;32.13;29.53;;;1.20;99.90;;;;;;5088852;28;20776;-59
2022/11/22 00:30:09;;;;;;;38.27;35.27;;;1.20;99.90;;;;;;5071097;28;20409;-58
2022/11/22 00:32:35;;;;;;;38.55;35.45;;;1.10;99.90;;;;;;5071673;28;20486;-59
2022/11/22 00:35:00;;;;;;;45.08;41.67;;;1.20;99.90;;;;;;5072102;28;20730;-59
2022/11/22 00:37:26;;;;;;;43.67;40.53;;;1.20;99.90;;;;;;5072648;28;20374;-59
2022/11/22 00:39:51;;;;;;;46.03;42.72;;;1.10;99.90;;;;;;5088444;28;20394;-59
2022/11/22 00:42:17;;;;;;;46.80;43.40;;;1.10;99.90;;;;;;5087795;28;20421;-57
2022/11/22 00:44:42;;;;;;;48.03;44.70;;;1.10;99.90;;;;;;5087139;28;20381;-59
2022/11/22 00:47:08;;;;;;;45.90;42.60;;;1.10;99.90;;;;;;5070894;28;20394;-60
2022/11/22 00:49:34;;;;;;;48.65;45.30;;;1.10;99.90;;;;;;5086790;28;20410;-59
2022/11/22 00:51:59;;;;;;;47.53;44.22;;;1.10;99.90;;;;;;5087080;28;20389;-59
2022/11/22 00:54:25;;;;;;;49.93;46.43;;;1.20;99.90;;;;;;5068893;28;20689;-59
2022/11/22 00:56:50;;;;;;;50.67;47.07;;;1.20;99.90;;;;;;5069462;28;20587;-59
2022/11/22 00:59:16;;;;;;;51.47;47.77;;;1.10;99.90;;;;;;5086871;28;20756;-58
2022/11/22 01:01:41;;;;;;;53.72;49.85;;;1.10;99.90;;;;;;5084115;28;20388;-59
2022/11/22 01:04:07;;;;;;;55.10;51.13;;;1.10;99.90;;;;;;5067392;28;20424;-57
2022/11/22 01:06:32;;;;;;;53.00;49.10;;;1.00;99.90;;;;;;5084482;28;20386;-57
2022/11/22 01:08:58;;;;;;;56.47;52.47;;;1.00;99.90;;;;;;5084615;28;20602;-54
2022/11/22 01:11:24;;;;;;;48.35;44.85;;;1.00;99.90;;;;;;5085735;28;20401;-59
2022/11/22 01:13:49;;;;;;;51.65;47.95;;;1.10;99.90;;;;;;5084371;28;20473;-59
2022/11/22 01:16:15;;;;;;;52.38;48.50;;;1.10;99.90;;;;;;5086155;28;20476;-59
2022/11/22 01:18:41;;;;;;;56.05;51.90;;;1.10;99.90;;;;;;5086450;28;20437;-59
2022/11/22 01:21:07;;;;;;;56.25;52.30;;;1.10;99.90;;;;;;5069766;28;20392;-58
2022/11/22 01:23:33;;;;;;;55.55;51.63;;;1.00;99.90;;;;;;5086751;28;20393;-59
2022/11/22 01:26:00;;;;;;;54.63;50.78;;;1.10;99.90;;;;;;5087833;28;20782;-60
2022/11/22 01:28:26;;;;;;;59.17;55.10;;;1.10;99.90;;;;;;5073393;28;20436;-60
2022/11/22 01:30:52;;;;;;;57.10;53.10;;;1.10;99.90;;;;;;5090099;28;20679;-60
2022/11/22 01:33:19;;;;;;;54.28;50.53;;;1.10;99.90;;;;;;5073205;28;21008;-55
2022/11/22 01:35:44;;;;;;;55.15;51.25;;;1.10;99.90;;;;;;5088953;28;20412;-60
2022/11/22 01:38:10;;;;;;;57.28;53.17;;;1.20;99.90;;;;;;5073071;28;20382;-60
2022/11/22 01:40:36;;;;;;;54.58;50.88;;;1.20;99.90;;;;;;5091333;28;20948;-59
2022/11/22 01:43:03;;;;;;;56.60;52.63;;;1.20;99.90;;;;;;5089470;28;20392;-60
2022/11/22 01:45:28;;;;;;;56.13;52.08;;;1.20;99.90;;;;;;5071412;28;20670;-58
2022/11/22 01:48:06;;;;;;;55.33;51.37;;;1.20;99.90;;;;;;5070823;28;20801;-59
2022/11/22 01:50:35;;;;;;;54.88;50.78;;;1.20;99.90;;;;;;5071474;28;20750;-58
2022/11/22 01:53:05;;;;;;;57.78;53.67;;;1.20;99.90;;;;;;5089717;28;20774;-60
2022/11/22 01:55:31;;;;;;;57.15;53.08;;;1.10;99.90;;;;;;5071336;28;20384;-59
2022/11/22 01:57:57;;;;;;;57.10;53.10;;;1.20;99.90;;;;;;5069798;28;20378;-60
2022/11/22 02:00:23;;;;;;;55.93;51.93;;;1.10;99.90;;;;;;5086590;28;20593;-60
2022/11/22 02:02:53;;;;;;;59.47;55.17;;;1.20;99.90;;;;;;5068449;28;20378;-60
2022/11/22 02:05:22;;;;;;;58.80;54.50;;;1.10;99.90;;;;;;5056242;28;20414;-60
2022/11/22 02:07:59;;;;;;;59.67;55.42;;;1.10;99.90;;;;;;5065469;28;20492;-59
2022/11/22 02:10:27;;;;;;;53.10;49.03;;;1.10;99.90;;;;;;5049569;28;20497;-60
2022/11/22 02:12:54;;;;;;;45.50;42.00;;;1.10;99.90;;;;;;5067095;28;20387;-59
2022/11/22 02:15:20;;;;;;;45.38;41.85;;;1.10;99.90;;;;;;5050660;28;20402;-57
2022/11/22 02:17:46;;;;;;;48.67;44.88;;;1.20;99.90;;;;;;5071388;28;20675;-59
2022/11/22 02:20:11;;;;;;;49.20;45.47;;;1.20;99.90;;;;;;5053140;28;20388;-59
2022/11/22 02:22:48;;;;;;;45.60;42.07;;;1.20;99.90;;;;;;5070649;28;20392;-60
2022/11/22 02:25:28;;;;;;;48.87;45.17;;;1.20;99.90;;;;;;5051786;28;20376;-58
2022/11/22 02:27:53;;;;;;;47.40;43.72;;;1.20;99.90;;;;;;5052528;28;20652;-59
2022/11/22 02:30:19;;;;;;;48.65;44.95;;;1.20;99.90;;;;;;5051598;28;20853;-60
2022/11/22 02:32:45;;;;;;;45.90;42.42;;;1.20;99.90;;;;;;5052749;28;20383;-57
2022/11/22 02:35:25;;;;;;;49.33;45.58;;;1.30;99.90;;;;;;5072341;28;20396;-60
2022/11/22 02:37:56;;;;;;;46.22;42.75;;;1.20;99.90;;;;;;5055365;28;20629;-59
2022/11/22 02:40:24;;;;;;;51.20;47.45;;;1.30;99.90;;;;;;5055127;28;20708;-58
2022/11/22 02:42:55;;;;;;;49.47;45.77;;;1.30;99.90;;;;;;5056294;28;20425;-60
2022/11/22 02:45:20;;;;;;;52.80;48.70;;;1.30;99.90;;;;;;5056387;28;20383;-59
2022/11/22 02:47:46;;;;;;;50.10;46.30;;;1.20;99.90;;;;;;5056005;28;20450;-60
2022/11/22 02:50:12;;;;;;;46.47;42.97;;;1.20;99.90;;;;;;5056347;28;20403;-59
2022/11/22 02:52:38;;;;;;;49.85;46.05;;;1.30;99.90;;;;;;5073858;28;20388;-60
2022/11/22 02:55:04;;;;;;;52.50;48.50;;;1.30;99.90;;;;;;5074753;28;20423;-58
2022/11/22 02:57:29;;;;;;;48.60;44.75;;;1.30;99.90;;;;;;5056875;28;20388;-57
2022/11/22 02:59:55;;;;;;;48.13;44.47;;;1.30;99.90;;;;;;5057667;28;20466;-58
2022/11/22 03:02:20;;;;;;;50.63;46.77;;;1.30;99.90;;;;;;5056690;28;20394;-59
2022/11/22 03:04:46;;;;;;;47.58;44.00;;;1.30;99.90;;;;;;5079946;28;20508;-59
2022/11/22 03:07:11;;;;;;;44.45;41.08;;;1.30;99.90;;;;;;5073805;28;20377;-60
2022/11/22 03:09:37;;;;;;;47.27;43.67;;;1.30;99.90;;;;;;5073729;28;20671;-60
2022/11/22 03:12:02;;;;;;;47.37;43.87;;;1.30;99.90;;;;;;5091315;28;20382;-58
2022/11/22 03:14:28;;;;;;;48.05;44.35;;;1.30;99.90;;;;;;5090509;28;20436;-60
2022/11/22 03:16:54;;;;;;;46.78;43.28;;;1.30;99.90;;;;;;5090267;28;20808;-59
2022/11/22 03:19:19;;;;;;;44.25;40.95;;;1.30;99.90;;;;;;5091563;28;20677;-56
2022/11/22 03:21:45;;;;;;;43.10;39.72;;;1.30;99.90;;;;;;5091992;28;20382;-59
2022/11/22 03:24:11;;;;;;;46.20;42.70;;;1.30;99.90;;;;;;5093433;28;20387;-60
2022/11/22 03:26:37;;;;;;;48.13;44.33;;;1.30;99.90;;;;;;5093777;28;20739;-60
2022/11/22 03:29:03;;;;;;;46.40;42.97;;;1.30;99.90;;;;;;5076920;28;20815;-60
2022/11/22 03:31:28;;;;;;;41.10;37.95;;;1.30;99.90;;;;;;5079134;28;20385;-60
2022/11/22 03:33:54;;;;;;;43.03;39.67;;;1.20;99.90;;;;;;5095102;28;20401;-59
2022/11/22 03:36:20;;;;;;;42.95;39.65;;;1.30;99.90;;;;;;5077987;28;20394;-58
2022/11/22 03:38:46;;;;;;;42.85;39.53;;;1.30;99.90;;;;;;5094870;28;20386;-60
2022/11/22 03:41:12;;;;;;;44.70;41.40;;;1.30;99.90;;;;;;5093920;28;20678;-60
2022/11/22 03:43:38;;;;;;;45.60;42.25;;;1.30;99.90;;;;;;5094276;28;20449;-60
2022/11/22 03:46:03;;;;;;;44.05;40.67;;;1.30;99.90;;;;;;5077800;28;20405;-60
2022/11/22 03:48:29;;;;;;;46.28;42.83;;;1.30;99.90;;;;;;5093975;28;20423;-60
2022/11/22 03:51:05;;;;;;;44.58;41.28;;;1.30;99.90;;;;;;5077934;28;20379;-60
2022/11/22 03:53:32;;;;;;;44.65;41.25;;;1.30;99.90;;;;;;5077955;28;20390;-60
2022/11/22 03:55:58;;;;;;;46.67;43.22;;;1.40;99.90;;;;;;5095644;28;20469;-60
2022/11/22 03:58:23;;;;;;;42.80;39.58;;;1.30;99.90;;;;;;5094533;28;20465;-59
2022/11/22 04:00:49;;;;;;;44.28;40.97;;;1.30;99.90;;;;;;5093568;28;20390;-59
2022/11/22 04:03:15;;;;;;;44.55;41.28;;;1.30;99.90;;;;;;5092574;28;20431;-60
2022/11/22 04:05:40;;;;;;;45.72;42.33;;;1.40;99.90;;;;;;5060242;28;20426;-59
2022/11/22 04:08:06;;;;;;;43.60;40.40;;;1.40;99.90;;;;;;5054296;28;20665;-59
2022/11/22 04:10:31;;;;;;;43.27;40.17;;;1.30;99.90;;;;;;5055420;28;20403;-60
2022/11/22 04:12:57;;;;;;;44.25;40.85;;;1.40;99.90;;;;;;5055533;28;20512;-57
2022/11/22 04:15:24;;;;;;;48.25;44.67;;;1.40;99.90;;;;;;5053310;28;20388;-60
2022/11/22 04:17:50;;;;;;;43.45;40.05;;;1.30;99.90;;;;;;5070246;28;20983;-59
2022/11/22 04:23:20;;;;;;;45.38;41.97;;;1.30;99.90;;;;;;5068929;28;20471;-60
2022/11/22 04:25:48;;;;;;;43.07;39.87;;;1.30;99.90;;;;;;5051585;28;20390;-60
2022/11/22 04:28:17;;;;;;;42.30;39.17;;;1.30;99.90;;;;;;5052802;28;20380;-60
2022/11/22 04:33:27;;;;;;;43.37;40.00;;;1.30;99.90;;;;;;5071461;28;20497;-60
2022/11/22 04:35:53;;;;;;;39.90;36.80;;;1.30;99.90;;;;;;5073532;28;20826;-58
2022/11/22 04:38:19;;;;;;;38.10;34.95;;;1.30;99.90;;;;;;5058939;28;20387;-59
2022/11/22 04:40:45;;;;;;;38.13;35.03;;;1.30;99.90;;;;;;5058252;28;20392;-58
2022/11/22 04:46:11;;;;;;;37.65;34.45;;;1.30;99.90;;;;;;5071728;28;20798;-60
2022/11/22 04:48:37;;;;;;;34.92;32.13;;;1.30;99.90;;;;;;5070201;28;20530;-60
2022/11/22 04:53:48;;;;;;;36.15;33.05;;;1.30;99.90;;;;;;5068468;28;20823;-59
2022/11/22 04:56:14;;;;;;;34.50;31.60;;;1.40;99.90;;;;;;5050644;28;20375;-58
2022/11/22 04:58:40;;;;;;;33.58;30.77;;;1.40;99.90;;;;;;5057022;28;20477;-59
2022/11/22 05:01:06;;;;;;;35.63;32.63;;;1.50;99.90;;;;;;5051124;28;20482;-60
2022/11/22 05:03:31;;;;;;;34.58;31.52;;;1.40;99.90;;;;;;5051426;28;20408;-60
2022/11/22 05:06:03;;;;;;;34.37;31.43;;;1.40;99.90;;;;;;5068859;28;20418;-59
2022/11/22 05:08:29;;;;;;;32.07;29.13;;;1.40;99.90;;;;;;5072568;28;21082;-58
2022/11/22 05:10:55;;;;;;;33.53;30.63;;;1.40;99.90;;;;;;5074031;28;20378;-59
2022/11/22 05:13:24;;;;;;;33.78;30.88;;;1.50;99.90;;;;;;5089891;28;20730;-60
2022/11/22 05:15:50;;;;;;;31.70;29.10;;;1.50;99.90;;;;;;5069882;28;20808;-58
2022/11/22 05:18:17;;;;;;;33.80;30.93;;;1.50;99.90;;;;;;5084053;28;20873;-59
2022/11/22 05:20:43;;;;;;;34.50;31.73;;;1.60;99.90;;;;;;5066881;28;20385;-60
2022/11/22 05:25:53;;;;;;;37.80;34.67;;;1.60;99.90;;;;;;5083859;28;20880;-59
2022/11/22 05:28:18;;;;;;;32.47;29.73;;;1.60;99.90;;;;;;5082955;28;20591;-58
2022/11/22 05:30:44;;;;;;;33.10;30.20;;;1.60;99.90;;;;;;5084530;28;20370;-60
2022/11/22 05:33:09;;;;;;;33.73;30.73;;;1.60;99.90;;;;;;5086133;28;20386;-58
2022/11/22 05:35:35;;;;;;;30.92;28.13;;;1.60;99.90;;;;;;5088794;28;20386;-60
2022/11/22 05:38:00;;;;;;;34.37;31.37;;;1.60;99.90;;;;;;5088702;28;20719;-59
2022/11/22 05:40:26;;;;;;;33.97;31.07;;;1.60;99.90;;;;;;5088450;28;20385;-59
2022/11/22 05:42:51;;;;;;;32.30;29.50;;;1.60;99.90;;;;;;5088355;28;20382;-59
2022/11/22 05:45:17;;;;;;;33.45;30.55;;;1.60;99.90;;;;;;5066379;28;20386;-60
2022/11/22 05:47:43;;;;;;;30.85;28.10;;;1.60;99.90;;;;;;5083947;28;20480;-60
2022/11/22 05:50:09;;;;;;;32.70;29.88;;;1.60;99.90;;;;;;5082173;28;20666;-60
2022/11/22 05:52:34;;;;;;;34.22;31.08;;;1.60;99.90;;;;;;5082513;28;20414;-60
2022/11/22 05:55:00;;;;;;;30.95;28.25;;;1.60;99.90;;;;;;5086061;28;20382;-59
2022/11/22 05:57:26;;;;;;;33.08;30.23;;;1.70;99.90;;;;;;5070148;28;20394;-58
2022/11/22 05:59:53;;;;;;;33.55;30.65;;;1.70;99.90;;;;;;5071163;28;20384;-60
2022/11/22 06:02:18;;;;;;;31.70;28.80;;;1.70;99.90;;;;;;5071953;28;20393;-57
2022/11/22 06:04:44;;;;;;;33.38;30.48;;;1.70;99.90;;;;;;5083764;28;20484;-60
2022/11/22 06:07:10;;;;;;;33.47;30.47;;;1.70;99.90;;;;;;5054360;28;20433;-60
2022/11/22 06:09:35;;;;;;;31.57;28.67;;;1.70;99.90;;;;;;5054453;28;20399;-58
2022/11/22 06:12:01;;;;;;;32.85;29.95;;;1.70;99.90;;;;;;5071457;28;20770;-60
2022/11/22 06:14:26;;;;;;;30.70;28.05;;;1.80;99.90;;;;;;5055383;28;20607;-59
2022/11/22 06:16:52;;;;;;;32.75;29.77;;;1.80;99.90;;;;;;5054656;28;20500;-59
2022/11/22 06:19:17;;;;;;;32.33;29.33;;;1.70;99.90;;;;;;5054346;28;20667;-59
2022/11/22 06:21:43;;;;;;;33.47;30.57;;;1.70;99.90;;;;;;5070937;28;20410;-60
2022/11/22 06:24:09;;;;;;;32.97;30.10;;;1.70;99.90;;;;;;5052903;28;20384;-57
2022/11/22 06:26:35;;;;;;;32.25;29.42;;;1.70;99.90;;;;;;5071047;28;20687;-58
2022/11/22 06:29:01;;;;;;;32.25;29.42;;;1.70;99.90;;;;;;5053141;28;20672;-59
2022/11/22 06:31:27;;;;;;;34.63;31.55;;;1.80;99.90;;;;;;5052469;28;20672;-59
2022/11/22 06:33:55;;;;;;;33.33;30.33;;;1.80;99.90;;;;;;5052502;28;20693;-60
2022/11/22 06:36:32;;;;;;;38.75;35.38;;;1.80;99.90;;;;;;5053166;28;20836;-59
2022/11/22 06:38:57;;;;;;;39.58;36.28;;;1.80;99.90;;;;;;5051491;28;20411;-57
2022/11/22 06:41:25;;;;;;;41.30;37.70;;;1.80;99.90;;;;;;5052101;28;20761;-60
2022/11/22 06:43:52;;;;;;;42.28;38.65;;;1.80;99.90;;;;;;5053000;28;20450;-60
2022/11/22 06:46:20;;;;;;;42.40;38.95;;;1.80;99.90;;;;;;5053720;28;20700;-60
2022/11/22 06:48:46;;;;;;;39.65;36.45;;;1.80;99.90;;;;;;5052280;28;20770;-60
2022/11/22 06:51:23;;;;;;;42.50;39.10;;;1.80;99.90;;;;;;5051292;28;20713;-60
2022/11/22 06:53:50;;;;;;;40.60;37.20;;;1.80;99.90;;;;;;5048739;28;20679;-58
2022/11/22 06:56:18;;;;;;;40.47;37.08;;;1.80;99.90;;;;;;5047193;28;20391;-59
2022/11/22 06:58:45;;;;;;;41.72;38.22;;;1.80;99.90;;;;;;5047335;28;20423;-58
2022/11/22 07:01:13;;;;;;;40.45;37.08;;;1.80;99.90;;;;;;5046039;28;20443;-59
2022/11/22 07:03:39;;;;;;;39.65;36.25;;;1.80;99.90;;;;;;5044201;28;20667;-59
2022/11/22 07:06:07;;;;;;;42.60;38.95;;;1.80;99.90;;;;;;5059839;28;20406;-60
2022/11/22 07:08:33;;;;;;;43.22;39.47;;;1.80;99.90;;;;;;5063005;28;20863;-59
2022/11/22 07:11:03;;;;;;;43.17;39.60;;;1.80;99.90;;;;;;5064532;28;20997;-59
2022/11/22 07:13:30;;;;;;;42.27;38.77;;;1.80;99.90;;;;;;5064162;28;20639;-60
2022/11/22 07:15:57;;;;;;;42.53;39.03;;;1.90;99.90;;;;;;5063210;28;20973;-58
2022/11/22 07:18:23;;;;;;;43.97;40.28;;;1.80;99.90;;;;;;5064244;28;20554;-60
2022/11/22 07:20:48;;;;;;;40.58;37.17;;;1.90;99.90;;;;;;5078500;28;20510;-59
2022/11/22 07:23:14;;;;;;;41.67;38.13;;;1.90;99.90;;;;;;5078492;28;20713;-59
2022/11/22 07:25:49;;;;;;;42.90;39.20;;;1.90;99.90;;;;;;5079587;28;20374;-59
2022/11/22 07:28:16;;;;;;;42.58;38.75;;;1.90;99.90;;;;;;5079855;28;20774;-60
2022/11/22 07:30:42;;;;;;;40.55;37.15;;;1.90;99.90;;;;;;5083597;28;20441;-60
2022/11/22 07:33:08;;;;;;;43.30;39.65;;;1.90;99.90;;;;;;5067150;28;20429;-60
2022/11/22 07:35:34;;;;;;;42.33;38.90;;;1.90;99.90;;;;;;5082553;28;20390;-58
2022/11/22 07:38:00;;;;;;;40.83;37.30;;;1.90;99.90;;;;;;5068737;28;20382;-60
2022/11/22 07:40:26;;;;;;;40.92;37.53;;;1.90;99.90;;;;;;5082513;28;20662;-59
2022/11/22 07:42:52;;;;;;;40.92;37.63;;;1.90;99.90;;;;;;5081848;28;20440;-60
2022/11/22 07:45:18;;;;;;;41.90;38.33;;;1.90;99.90;;;;;;5081071;28;20576;-59
2022/11/22 07:47:43;;;;;;;40.50;37.10;;;1.90;99.90;;;;;;5078455;28;20397;-58
2022/11/22 07:50:09;;;;;;;42.17;38.67;;;1.90;99.90;;;;;;5078965;28;20627;-60
2022/11/22 07:52:35;;;;;;;42.42;38.97;;;1.90;99.90;;;;;;5076957;28;20439;-58
2022/11/22 07:55:00;;;;;;;43.45;39.70;;;2.00;99.90;;;;;;5076351;28;20395;-59
2022/11/22 07:57:26;;;;;;;44.53;40.60;;;1.90;99.90;;;;;;5061183;28;20657;-58
2022/11/22 07:59:52;;;;;;;40.03;36.73;;;1.90;99.90;;;;;;5077886;28;20394;-58
2022/11/22 08:02:17;;;;;;;44.10;40.57;;;2.00;99.90;;;;;;5076353;28;20578;-59
2022/11/22 08:04:43;;;;;;;41.13;37.83;;;2.00;99.90;;;;;;5074954;28;20861;-59
2022/11/22 08:07:08;;;;;;;42.17;38.63;;;2.00;99.90;;;;;;5074890;28;20855;-58
2022/11/22 08:09:35;;;;;;;43.20;39.67;;;2.00;99.90;;;;;;5071857;28;20791;-60
2022/11/22 08:12:01;;;;;;;41.03;37.63;;;2.00;99.90;;;;;;5056172;28;20381;-57
2022/11/22 08:14:26;;;;;;;41.80;38.27;;;2.00;99.90;;;;;;5056741;28;20439;-57
2022/11/22 08:16:52;;;;;;;39.23;35.93;;;2.00;99.90;;;;;;5056466;28;20382;-59
2022/11/22 08:19:18;;;;;;;40.47;37.07;;;2.00;99.90;;;;;;5074856;28;20408;-59
2022/11/22 08:21:44;;;;;;;40.50;37.10;;;1.90;99.90;;;;;;5075982;28;20782;-59
2022/11/22 08:24:10;;;;;;;42.80;39.20;;;2.00;99.90;;;;;;5057814;28;20386;-59
2022/11/22 08:26:36;;;;;;;41.70;38.20;;;1.90;99.90;;;;;;5056251;28;20554;-59
2022/11/22 08:29:10;;;;;;;42.17;38.60;;;1.90;99.90;;;;;;5072908;28;20406;-60
2022/11/22 08:31:36;;;;;;;42.40;39.00;;;1.90;99.90;;;;;;5072116;28;20397;-58
2022/11/22 08:34:02;;;;;;;41.85;38.42;;;2.00;99.90;;;;;;5070903;28;20641;-59
2022/11/22 08:36:28;;;;;;;43.08;39.47;;;2.00;99.90;;;;;;5051578;28;20441;-59
2022/11/22 08:38:54;;;;;;;41.88;38.38;;;2.00;99.90;;;;;;5053456;28;20482;-59
2022/11/22 08:41:20;;;;;;;39.90;36.50;;;1.90;99.90;;;;;;5071659;28;20394;-58
2022/11/22 08:43:49;;;;;;;41.95;38.35;;;1.90;99.90;;;;;;5053709;28;20678;-59
2022/11/22 08:46:17;;;;;;;43.25;39.65;;;2.00;99.90;;;;;;5056138;28;20813;-60
2022/11/22 08:48:43;;;;;;;40.83;37.35;;;2.00;99.90;;;;;;5056437;28;20432;-60
2022/11/22 08:51:10;;;;;;;38.65;35.47;;;2.00;99.90;;;;;;5073716;28;20398;-60
2022/11/22 08:53:38;;;;;;;42.97;39.47;;;2.00;99.90;;;;;;5053378;28;20524;-59
2022/11/22 08:56:08;;;;;;;42.10;38.60;;;2.00;99.90;;;;;;5054045;28;20397;-59
2022/11/22 08:58:34;;;;;;;43.28;39.60;;;2.10;99.90;;;;;;5055868;28;20803;-58
2022/11/22 09:01:07;;;;;;;41.73;38.17;;;2.00;99.90;;;;;;5074138;28;20744;-60
2022/11/22 09:03:34;;;;;;;41.13;37.63;;;2.10;99.90;;;;;;5054569;28;20393;-59
2022/11/22 09:06:14;;;;;;;41.00;37.53;;;2.00;99.90;;;;;;5042290;28;20595;-58
2022/11/22 09:08:40;;;;;;;43.20;39.50;;;2.10;99.90;;;;;;5041347;28;20698;-59
2022/11/22 09:11:17;;;;;;;43.37;39.57;;;2.10;99.90;;;;;;5040260;28;20383;-60
2022/11/22 09:13:43;;;;;;;39.40;36.20;;;2.10;99.90;;;;;;5039038;28;20378;-59
2022/11/22 09:16:15;;;;;;;41.15;37.75;;;2.10;99.90;;;;;;5037563;28;20467;-60
2022/11/22 09:18:41;;;;;;;42.28;38.60;;;2.10;99.90;;;;;;5034954;28;20403;-60
2022/11/22 09:21:10;;;;;;;39.25;36.05;;;2.20;99.90;;;;;;5033052;28;20630;-60
2022/11/22 09:23:36;;;;;;;42.72;39.15;;;2.20;99.90;;;;;;5030271;28;20608;-60
2022/11/22 09:26:08;;;;;;;39.53;36.13;;;2.20;99.90;;;;;;5028519;28;20434;-58
2022/11/22 09:28:35;;;;;;;38.83;35.50;;;2.20;99.90;;;;;;5026705;28;20731;-59
2022/11/22 09:31:06;;;;;;;40.65;37.10;;;2.20;99.90;;;;;;5024778;28;20383;-59
2022/11/22 09:33:38;;;;;;;41.08;37.63;;;2.20;99.90;;;;;;5026774;28;20391;-59
2022/11/22 09:36:14;;;;;;;39.72;36.33;;;2.20;99.90;;;;;;5044693;28;20414;-59
2022/11/22 09:38:40;;;;;;;42.53;38.92;;;2.20;99.90;;;;;;5029249;28;20387;-59
2022/11/22 09:41:15;;;;;;;41.45;38.08;;;2.20;99.90;;;;;;5033451;28;20653;-59
2022/11/22 09:44:11;;;;;;;39.92;36.70;;;2.20;99.90;;;;;;5032537;28;20830;-59
2022/11/22 09:47:11;;;;;;;39.38;36.05;;;2.30;99.90;;;;;;5052130;28;20770;-59
2022/11/22 09:50:12;;;;;;;42.20;38.63;;;2.30;99.90;;;;;;5058871;28;20411;-58
2022/11/22 09:52:52;;;;;;;41.90;38.45;;;2.30;99.90;;;;;;4972226;28;20503;-58
2022/11/22 09:55:42;;;;;;;40.75;37.50;;;2.30;99.90;;;;;;5043364;28;20384;-60
2022/11/22 09:58:46;;;;;;;41.03;37.85;;;2.30;99.90;;;;;;5041833;28;20725;-59
2022/11/22 10:01:12;;;;;;;41.42;37.83;;;2.40;99.90;;;;;;5041215;28;20388;-60
2022/11/22 10:03:59;;;;;;;42.45;39.05;;;2.30;99.90;;;;;;5044662;28;20422;-59
2022/11/22 10:06:34;;;;;;;42.50;38.92;;;2.30;99.90;;;;;;5056490;28;20541;-59
2022/11/22 10:09:09;;;;;;;39.28;35.97;;;2.30;99.90;;;;;;5062673;28;20600;-60
2022/11/22 10:11:44;;;;;;;42.40;38.80;;;2.30;99.90;;;;;;5064410;28;21061;-59
2022/11/22 10:14:28;;;;;;;41.85;38.45;;;2.30;99.90;;;;;;5065877;28;20397;-58
2022/11/22 10:17:13;;;;;;;44.55;40.85;;;2.40;99.90;;;;;;5066580;28;20394;-57
2022/11/22 10:19:45;;;;;;;47.80;44.00;;;2.40;99.90;;;;;;5064244;28;20512;-56
2022/11/22 10:22:13;;;;;;;53.53;49.33;;;2.50;99.90;;;;;;5063371;28;20385;-60
2022/11/22 10:24:38;;;;;;;45.30;41.60;;;2.70;99.90;;;;;;5082611;28;20417;-61
2022/11/22 10:27:11;;;;;;;42.95;39.42;;;2.70;99.90;;;;;;5064425;28;20473;-61
2022/11/22 10:29:54;;;;;;;44.97;41.38;;;2.60;99.90;;;;;;5064622;28;20394;-60
2022/11/22 10:32:33;;;;;;;43.03;39.38;;;2.70;99.90;;;;;;5084820;28;20385;-57
2022/11/22 10:35:30;;;;;;;42.13;38.53;;;2.60;99.90;;;;;;5067302;28;20686;-60
2022/11/22 10:38:32;;;;;;;44.30;40.63;;;2.60;99.90;;;;;;5067379;28;20465;-60
2022/11/22 10:41:06;;;;;;;44.28;40.47;;;2.50;99.90;;;;;;5071567;28;20484;-61
2022/11/22 10:43:44;;;;;;;40.80;37.22;;;2.50;99.90;;;;;;5070399;28;20378;-60
2022/11/22 10:46:37;;;;;;;44.00;40.40;;;2.60;99.90;;;;;;5071089;28;20404;-59
2022/11/22 10:49:21;;;;;;;41.88;38.33;;;2.50;99.90;;;;;;5067883;28;20417;-58
2022/11/22 10:51:54;;;;;;;43.13;39.63;;;2.60;99.90;;;;;;5068858;28;20406;-60
2022/11/22 10:54:55;;;;;;;42.35;38.80;;;2.60;99.90;;;;;;5069115;28;20421;-59
2022/11/22 10:57:48;;;;;;;44.35;40.65;;;2.60;99.90;;;;;;5056129;28;20393;-58
2022/11/22 11:00:24;;;;;;;44.67;41.08;;;2.60;99.90;;;;;;5070031;28;20485;-59
2022/11/22 11:03:12;;;;;;;43.88;40.20;;;2.60;99.90;;;;;;5085999;28;20886;-59
2022/11/22 11:05:44;;;;;;;45.10;41.37;;;2.60;99.90;;;;;;5070826;28;20403;-59
2022/11/22 11:08:15;;;;;;;44.63;41.03;;;2.60;99.90;;;;;;5048623;28;20390;-59
2022/11/22 11:10:41;;;;;;;44.58;40.78;;;2.60;99.90;;;;;;5065525;28;20486;-58
2022/11/22 11:13:20;;;;;;;44.13;40.53;;;2.70;99.90;;;;;;5048398;28;20464;-59
2022/11/22 11:15:51;;;;;;;41.30;37.90;;;2.70;99.90;;;;;;5046773;28;20376;-59
2022/11/22 11:18:22;;;;;;;43.05;39.58;;;2.70;99.90;;;;;;5051519;28;20727;-59
2022/11/22 11:20:50;;;;;;;43.95;40.35;;;2.70;99.90;;;;;;5050877;28;20410;-60
2022/11/22 11:23:15;;;;;;;42.55;39.05;;;2.80;99.90;;;;;;5046419;28;20884;-59
2022/11/22 11:25:44;;;;;;;45.20;41.70;;;2.70;99.90;;;;;;5065638;28;20380;-58
2022/11/22 11:28:20;;;;;;;45.95;42.35;;;2.80;99.90;;;;;;5047272;28;20384;-60
2022/11/22 11:31:06;;;;;;;45.15;41.45;;;2.70;99.90;;;;;;5045475;28;20557;-59
2022/11/22 11:33:36;;;;;;;44.17;40.63;;;2.70;99.90;;;;;;5061785;28;20399;-59
2022/11/22 11:36:17;;;;;;;45.97;42.13;;;2.70;99.90;;;;;;5058084;28;20461;-58
2022/11/22 11:38:43;;;;;;;46.60;42.78;;;2.80;99.90;;;;;;5039421;28;20380;-59
2022/11/22 11:41:18;;;;;;;45.63;41.93;;;2.80;99.90;;;;;;5041866;28;20380;-60
2022/11/22 11:43:46;;;;;;;45.50;41.95;;;2.90;99.90;;;;;;5045777;28;20507;-59
2022/11/22 11:46:18;;;;;;;41.30;38.00;;;2.90;99.90;;;;;;5046244;28;20402;-60
2022/11/22 11:48:45;;;;;;;43.85;40.15;;;3.00;99.90;;;;;;5062798;28;20418;-59
2022/11/22 11:51:34;;;;;;;47.25;43.50;;;3.00;99.90;;;;;;5062280;28;20450;-60
2022/11/22 11:54:20;;;;;;;45.97;42.28;;;2.90;99.90;;;;;;5046671;28;20379;-59
2022/11/22 11:56:54;;;;;;;43.28;39.80;;;3.00;99.90;;;;;;5047111;28;20471;-59
2022/11/22 11:59:30;;;;;;;48.38;44.50;;;3.00;99.90;;;;;;5043143;28;20473;-59
2022/11/22 12:02:21;;;;;;;47.20;43.63;;;3.10;99.90;;;;;;5042954;28;20391;-59
2022/11/22 12:04:51;;;;;;;48.85;44.95;;;3.20;99.90;;;;;;5047145;28;20476;-58
2022/11/22 12:07:22;;;;;;;52.45;48.30;;;3.20;99.90;;;;;;5080695;28;21103;-58
2022/11/22 12:09:50;;;;;;;50.92;47.08;;;3.30;99.90;;;;;;5062968;28;20492;-60
2022/11/22 12:12:31;;;;;;;50.20;46.22;;;3.30;99.90;;;;;;5063951;28;20597;-58
2022/11/22 12:15:11;;;;;;;48.08;44.38;;;3.40;99.90;;;;;;5066213;28;20579;-57
2022/11/22 12:17:50;;;;;;;45.75;42.03;;;3.40;99.90;;;;;;5063813;28;20410;-59
2022/11/22 12:20:22;;;;;;;45.38;41.80;;;3.40;99.90;;;;;;5063738;28;20400;-59
2022/11/22 12:23:06;;;;;;;44.78;41.20;;;3.40;99.90;;;;;;5065789;28;20378;-57
2022/11/22 12:25:41;;;;;;;44.42;41.03;;;3.30;99.90;;;;;;5064710;28;20378;-59
2022/11/22 12:28:32;;;;;;;45.58;42.03;;;3.30;99.90;;;;;;5076873;28;20475;-59
2022/11/22 12:31:37;;;;;;;46.60;42.80;;;3.30;99.90;;;;;;5053323;28;20398;-58
2022/11/22 12:34:18;;;;;;;44.80;41.22;;;3.30;99.90;;;;;;5060385;28;20389;-58
2022/11/22 12:36:55;;;;;;;45.95;42.30;;;3.30;99.90;;;;;;5064638;28;20538;-59
2022/11/22 12:39:25;;;;;;;45.28;41.75;;;3.30;99.90;;;;;;5064794;28;20374;-58
2022/11/22 12:41:58;;;;;;;49.05;45.15;;;3.40;99.90;;;;;;5078160;28;20385;-59
2022/11/22 12:44:37;;;;;;;47.40;43.78;;;3.40;99.90;;;;;;5076508;28;20888;-59
2022/11/22 12:47:12;;;;;;;43.63;40.25;;;3.40;99.90;;;;;;5062274;28;20465;-59
2022/11/22 12:49:44;;;;;;;47.42;43.63;;;3.40;99.90;;;;;;5060126;28;20412;-59
2022/11/22 12:52:23;;;;;;;51.03;47.13;;;3.40;99.90;;;;;;5077855;28;20386;-56
2022/11/22 12:55:25;;;;;;;48.97;45.03;;;3.40;99.90;;;;;;5059135;28;20836;-59
2022/11/22 12:58:03;;;;;;;44.72;41.28;;;3.40;99.90;;;;;;5061257;28;20424;-59
2022/11/22 13:00:34;;;;;;;49.85;46.03;;;3.50;99.90;;;;;;5081081;28;20400;-60
2022/11/22 13:03:02;;;;;;;48.78;44.88;;;3.50;99.90;;;;;;5062265;28;20390;-59